createdAt,value
2022-08-05T00:00:22.895Z,51.25
2022-08-05T00:01:20.911Z,51.29
2022-08-05T00:02:07.833Z,51.44
2022-08-05T00:02:52.119Z,51.56
2022-08-05T00:03:34.712Z,51.43
2022-08-05T00:04:18.221Z,51.48
2022-08-05T00:04:59.209Z,51.65
2022-08-05T00:06:04.755Z,51.84
2022-08-05T00:06:42.755Z,51.70
2022-08-05T00:07:59.440Z,51.64
2022-08-05T00:08:34.509Z,51.49
2022-08-05T00:09:19.680Z,51.85
2022-08-05T00:09:59.363Z,51.58
2022-08-05T00:10:44.731Z,51.83
2022-08-05T00:11:30.508Z,51.54
2022-08-05T00:12:15.231Z,51.44
2022-08-05T00:12:59.573Z,51.48
2022-08-05T00:13:43.955Z,51.80
2022-08-05T00:14:36.087Z,51.38
2022-08-05T00:15:57.578Z,51.33
2022-08-05T00:16:36.043Z,51.49
2022-08-05T00:17:20.829Z,51.41
2022-08-05T00:18:15.050Z,51.46
2022-08-05T00:19:05.069Z,51.58
2022-08-05T00:20:01.747Z,51.71
2022-08-05T00:20:45.975Z,51.53
2022-08-05T00:21:35.608Z,51.43
2022-08-05T00:22:20.681Z,51.55
2022-08-05T00:23:12.647Z,51.33
2022-08-05T00:24:10.493Z,51.58
2022-08-05T00:24:55.191Z,51.53
2022-08-05T00:25:45.633Z,51.58
2022-08-05T00:26:30.242Z,51.54
2022-08-05T00:27:17.908Z,51.31
2022-08-05T00:28:05.943Z,51.21
2022-08-05T00:28:54.953Z,51.55
2022-08-05T00:29:43.078Z,51.63
2022-08-05T00:30:31.934Z,51.19
2022-08-05T00:31:13.832Z,51.28
2022-08-05T00:32:13.553Z,51.54
2022-08-05T00:32:59.410Z,51.50
2022-08-05T00:34:56.279Z,51.50
2022-08-05T00:35:05.710Z,51.48
2022-08-05T00:36:16.607Z,51.15
2022-08-05T00:37:10.663Z,51.21
2022-08-05T00:37:59.437Z,51.31
2022-08-05T00:38:47.938Z,51.42
2022-08-05T00:39:36.938Z,51.47
2022-08-05T00:40:27.889Z,51.10
2022-08-05T00:41:11.697Z,51.10
2022-08-05T00:41:57.405Z,51.06
2022-08-05T00:42:42.402Z,51.35
2022-08-05T00:43:46.582Z,51.35
2022-08-05T00:44:34.308Z,51.08
2022-08-05T00:45:38.951Z,51.05
2022-08-05T00:46:42.501Z,51.01
2022-08-05T00:47:53.434Z,51.06
2022-08-05T00:48:31.675Z,51.08
2022-08-05T00:49:18.603Z,51.02
2022-08-05T00:50:10.878Z,51.08
2022-08-05T00:50:59.826Z,51.29
2022-08-05T00:51:54.518Z,51.26
2022-08-05T00:52:48.108Z,51.27
2022-08-05T00:54:01.026Z,51.21
2022-08-05T00:54:34.548Z,50.93
2022-08-05T00:55:21.999Z,51.01
2022-08-05T00:56:17.209Z,50.94
2022-08-05T00:57:04.601Z,50.88
2022-08-05T00:57:57.868Z,50.91
2022-08-05T00:58:46.291Z,50.94
2022-08-05T00:59:42.051Z,50.83
2022-08-05T01:00:30.296Z,51.22
2022-08-05T01:01:42.247Z,50.75
2022-08-05T01:02:24.294Z,51.16
2022-08-05T01:03:09.552Z,51.08
2022-08-05T01:03:58.056Z,51.13
2022-08-05T01:04:50.383Z,50.78
2022-08-05T01:05:35.597Z,50.83
2022-08-05T01:06:32.719Z,50.76
2022-08-05T01:07:31.495Z,50.75
2022-08-05T01:08:30.705Z,50.69
2022-08-05T01:09:17.254Z,50.74
2022-08-05T01:10:09.145Z,50.69
2022-08-05T01:10:57.948Z,50.63
2022-08-05T01:11:44.921Z,50.62
2022-08-05T01:12:33.148Z,50.59
2022-08-05T01:13:27.477Z,50.60
2022-08-05T01:14:28.030Z,50.63
2022-08-05T01:15:35.331Z,50.62
2022-08-05T01:16:20.991Z,50.57
2022-08-05T01:17:10.968Z,50.62
2022-08-05T01:17:58.597Z,50.67
2022-08-05T01:18:56.423Z,50.63
2022-08-05T01:20:00.674Z,50.49
2022-08-05T01:20:41.114Z,50.68
2022-08-05T01:21:38.091Z,50.62
2022-08-05T01:22:27.771Z,50.61
2022-08-05T01:23:15.520Z,50.53
2022-08-05T01:24:05.346Z,50.46
2022-08-05T01:24:59.250Z,50.47
2022-08-05T01:25:53.279Z,50.59
2022-08-05T01:26:38.090Z,50.35
2022-08-05T01:27:29.647Z,50.65
2022-08-05T01:28:20.434Z,50.41
2022-08-05T01:29:11.352Z,50.51
2022-08-05T01:30:01.152Z,50.68
2022-08-05T01:30:53.710Z,50.25
2022-08-05T01:31:44.575Z,50.31
2022-08-05T01:32:30.455Z,50.49
2022-08-05T01:33:19.702Z,50.60
2022-08-05T01:34:03.780Z,50.38
2022-08-05T01:34:53.768Z,50.25
2022-08-05T01:35:51.988Z,50.63
2022-08-05T01:36:42.305Z,50.31
2022-08-05T01:37:32.954Z,50.61
2022-08-05T01:38:26.896Z,50.29
2022-08-05T01:39:08.563Z,50.17
2022-08-05T01:39:59.163Z,50.16
2022-08-05T01:40:44.760Z,50.51
2022-08-05T01:41:32.284Z,50.36
2022-08-05T01:42:22.896Z,50.51
2022-08-05T01:43:10.324Z,50.51
2022-08-05T01:44:05.607Z,50.50
2022-08-05T01:44:54.268Z,50.08
2022-08-05T01:45:43.146Z,50.32
2022-08-05T01:46:42.279Z,50.38
2022-08-05T01:47:38.872Z,50.27
2022-08-05T01:48:27.645Z,50.24
2022-08-05T01:49:23.096Z,50.26
2022-08-05T01:50:07.769Z,50.22
2022-08-05T01:51:00.076Z,49.84
2022-08-05T01:51:55.392Z,50.17
2022-08-05T01:52:42.803Z,49.81
2022-08-05T01:53:58.126Z,49.81
2022-08-05T01:54:34.551Z,49.72
2022-08-05T01:55:31.000Z,49.86
2022-08-05T01:58:10.038Z,49.90
2022-08-05T01:58:12.462Z,49.85
2022-08-05T01:58:40.944Z,50.21
2022-08-05T01:59:28.545Z,50.19
2022-08-05T02:00:18.375Z,49.96
2022-08-05T02:01:24.535Z,50.10
2022-08-05T02:02:10.643Z,50.24
2022-08-05T02:02:59.123Z,50.09
2022-08-05T02:03:44.565Z,50.08
2022-08-05T02:04:30.190Z,50.27
2022-08-05T02:05:18.876Z,49.99
2022-08-05T02:06:33.471Z,49.97
2022-08-05T02:07:21.941Z,49.93
2022-08-05T02:08:06.687Z,49.94
2022-08-05T02:08:59.022Z,49.96
2022-08-05T02:09:41.672Z,49.92
2022-08-05T02:10:29.685Z,49.94
2022-08-05T02:11:23.598Z,50.01
2022-08-05T02:12:10.164Z,50.11
2022-08-05T02:12:56.519Z,50.04
2022-08-05T02:13:53.834Z,49.96
2022-08-05T02:14:38.717Z,49.95
2022-08-05T02:15:21.967Z,50.00
2022-08-05T02:16:07.026Z,49.97
2022-08-05T02:17:04.017Z,49.78
2022-08-05T02:18:31.138Z,50.13
2022-08-05T02:18:56.680Z,49.89
2022-08-05T02:19:47.283Z,49.77
2022-08-05T02:20:31.193Z,49.86
2022-08-05T02:21:23.699Z,50.03
2022-08-05T02:22:10.685Z,49.87
2022-08-05T02:23:14.962Z,49.98
2022-08-05T02:24:06.079Z,49.79
2022-08-05T02:24:59.964Z,50.13
2022-08-05T02:25:49.154Z,50.06
2022-08-05T02:26:35.514Z,49.78
2022-08-05T02:27:29.679Z,49.88
2022-08-05T02:28:16.400Z,49.87
2022-08-05T02:29:21.394Z,49.90
2022-08-05T02:30:05.537Z,50.08
2022-08-05T02:30:54.748Z,49.73
2022-08-05T02:31:43.999Z,50.02
2022-08-05T02:32:33.702Z,49.85
2022-08-05T02:33:36.201Z,49.79
2022-08-05T02:34:24.810Z,49.79
2022-08-05T02:35:13.588Z,49.70
2022-08-05T02:36:01.195Z,49.97
2022-08-05T02:36:49.338Z,49.88
2022-08-05T02:37:38.168Z,49.93
2022-08-05T02:38:25.456Z,49.77
2022-08-05T02:39:13.833Z,50.01
2022-08-05T02:40:00.605Z,49.91
2022-08-05T02:40:50.350Z,50.08
2022-08-05T02:41:58.112Z,50.01
2022-08-05T02:42:39.369Z,49.86
2022-08-05T02:43:25.888Z,50.06
2022-08-05T02:44:13.457Z,49.98
2022-08-05T02:45:01.304Z,49.89
2022-08-05T02:45:52.046Z,50.00
2022-08-05T02:46:53.311Z,49.89
2022-08-05T02:48:06.654Z,49.96
2022-08-05T02:48:49.013Z,49.90
2022-08-05T02:49:40.660Z,50.04
2022-08-05T02:50:24.536Z,49.95
2022-08-05T02:51:09.305Z,50.02
2022-08-05T02:52:03.514Z,50.03
2022-08-05T02:52:49.244Z,49.92
2022-08-05T02:53:39.683Z,49.98
2022-08-05T02:54:36.223Z,50.27
2022-08-05T02:55:54.729Z,50.20
2022-08-05T02:56:23.367Z,50.22
2022-08-05T02:57:10.139Z,49.95
2022-08-05T02:58:15.112Z,49.94
2022-08-05T02:59:05.813Z,50.24
2022-08-05T02:59:55.477Z,50.19
2022-08-05T03:00:40.140Z,50.14
2022-08-05T03:01:28.221Z,49.86
2022-08-05T03:02:17.963Z,49.95
2022-08-05T03:03:03.598Z,49.93
2022-08-05T03:04:04.159Z,49.86
2022-08-05T03:04:55.404Z,49.99
2022-08-05T03:06:53.999Z,49.80
2022-08-05T03:06:56.650Z,49.99
2022-08-05T03:08:01.183Z,50.13
2022-08-05T03:08:48.708Z,50.13
2022-08-05T03:09:38.290Z,49.83
2022-08-05T03:10:29.570Z,49.82
2022-08-05T03:11:54.671Z,50.13
2022-08-05T03:12:24.582Z,49.84
2022-08-05T03:13:52.004Z,49.87
2022-08-05T03:14:48.161Z,49.85
2022-08-05T03:15:38.957Z,49.81
2022-08-05T03:16:28.649Z,50.00
2022-08-05T03:17:16.179Z,49.79
2022-08-05T03:18:08.818Z,49.95
2022-08-05T03:18:58.572Z,49.87
2022-08-05T03:19:48.513Z,50.23
2022-08-05T03:20:35.445Z,50.23
2022-08-05T03:21:23.543Z,50.32
2022-08-05T03:22:16.449Z,50.33
2022-08-05T03:23:03.337Z,50.05
2022-08-05T03:23:51.760Z,50.35
2022-08-05T03:24:38.016Z,50.11
2022-08-05T03:25:33.114Z,50.19
2022-08-05T03:26:31.568Z,50.24
2022-08-05T03:27:21.926Z,50.42
2022-08-05T03:28:14.066Z,50.48
2022-08-05T03:29:05.139Z,50.21
2022-08-05T03:30:07.404Z,50.61
2022-08-05T03:30:50.897Z,50.30
2022-08-05T03:31:57.231Z,50.44
2022-08-05T03:32:35.057Z,50.32
2022-08-05T03:33:22.776Z,50.67
2022-08-05T03:34:19.595Z,50.41
2022-08-05T03:35:06.939Z,50.65
2022-08-05T03:35:54.530Z,50.53
2022-08-05T03:36:45.694Z,50.42
2022-08-05T03:37:28.272Z,50.67
2022-08-05T03:38:14.688Z,50.39
2022-08-05T03:39:03.269Z,50.82
2022-08-05T03:39:59.029Z,50.53
2022-08-05T03:40:47.376Z,50.78
2022-08-05T03:41:45.218Z,50.53
2022-08-05T03:42:32.318Z,50.76
2022-08-05T03:44:07.993Z,50.87
2022-08-05T03:44:21.346Z,50.91
2022-08-05T03:45:21.586Z,50.62
2022-08-05T03:46:08.289Z,50.61
2022-08-05T03:46:56.228Z,50.59
2022-08-05T03:47:42.269Z,50.48
2022-08-05T03:48:25.821Z,50.74
2022-08-05T03:49:10.178Z,50.54
2022-08-05T03:49:53.893Z,50.80
2022-08-05T03:50:39.577Z,50.56
2022-08-05T03:52:38.978Z,50.62
2022-08-05T03:52:39.423Z,50.58
2022-08-05T03:55:06.865Z,50.67
2022-08-05T03:55:51.937Z,50.64
2022-08-05T03:56:05.325Z,50.59
2022-08-05T03:56:41.519Z,50.56
2022-08-05T03:57:41.906Z,50.69
2022-08-05T03:58:27.206Z,51.12
2022-08-05T03:59:15.857Z,50.90
2022-08-05T04:00:05.937Z,51.11
2022-08-05T04:00:53.147Z,51.03
2022-08-05T04:01:36.884Z,51.22
2022-08-05T04:02:37.825Z,50.87
2022-08-05T04:03:28.266Z,51.17
2022-08-05T04:04:14.591Z,51.01
2022-08-05T04:05:05.263Z,51.02
2022-08-05T04:05:55.935Z,50.76
2022-08-05T04:06:47.544Z,50.83
2022-08-05T04:07:33.059Z,50.91
2022-08-05T04:08:34.790Z,51.20
2022-08-05T04:09:26.304Z,51.13
2022-08-05T04:10:12.692Z,51.09
2022-08-05T04:11:03.246Z,51.11
2022-08-05T04:11:53.592Z,51.16
2022-08-05T04:13:50.610Z,51.32
2022-08-05T04:14:37.805Z,50.97
2022-08-05T04:15:27.956Z,51.04
2022-08-05T04:16:24.243Z,51.01
2022-08-05T04:17:07.484Z,50.97
2022-08-05T04:17:59.960Z,50.99
2022-08-05T04:18:44.844Z,51.02
2022-08-05T04:19:38.032Z,51.34
2022-08-05T04:20:25.064Z,51.32
2022-08-05T04:21:11.106Z,51.10
2022-08-05T04:22:09.045Z,51.19
2022-08-05T04:22:54.599Z,51.39
2022-08-05T04:24:05.998Z,51.16
2022-08-05T04:24:44.161Z,51.59
2022-08-05T04:25:56.654Z,51.66
2022-08-05T04:26:32.376Z,51.54
2022-08-05T04:27:17.921Z,51.79
2022-08-05T04:28:06.434Z,51.62
2022-08-05T04:28:58.460Z,51.78
2022-08-05T04:29:45.623Z,51.85
2022-08-05T04:30:30.717Z,51.36
2022-08-05T04:31:19.499Z,51.79
2022-08-05T04:32:02.636Z,51.44
2022-08-05T04:32:48.682Z,51.56
2022-08-05T04:34:17.140Z,51.42
2022-08-05T04:34:42.668Z,51.56
2022-08-05T04:36:16.517Z,51.33
2022-08-05T04:36:46.444Z,51.47
2022-08-05T04:38:01.076Z,51.44
2022-08-05T04:38:39.682Z,51.50
2022-08-05T04:39:27.694Z,51.41
2022-08-05T04:40:12.374Z,51.43
2022-08-05T04:41:03.549Z,51.38
2022-08-05T04:41:51.516Z,51.56
2022-08-05T04:42:35.239Z,51.57
2022-08-05T04:43:26.008Z,51.78
2022-08-05T04:44:21.553Z,51.71
2022-08-05T04:45:31.195Z,51.61
2022-08-05T04:46:28.409Z,51.54
2022-08-05T04:47:18.396Z,51.92
2022-08-05T04:48:04.601Z,51.95
2022-08-05T04:48:48.213Z,52.03
2022-08-05T04:49:38.741Z,52.27
2022-08-05T04:51:03.795Z,52.39
2022-08-05T04:51:43.888Z,52.21
2022-08-05T04:52:28.626Z,52.04
2022-08-05T04:53:17.297Z,51.96
2022-08-05T04:54:02.715Z,51.99
2022-08-05T04:54:57.491Z,52.23
2022-08-05T04:56:32.832Z,51.99
2022-08-05T04:56:58.933Z,52.26
2022-08-05T04:57:47.869Z,52.22
2022-08-05T04:58:31.476Z,52.13
2022-08-05T04:59:24.246Z,52.01
2022-08-05T05:00:23.747Z,51.83
2022-08-05T05:01:14.663Z,52.12
2022-08-05T05:02:41.337Z,52.03
2022-08-05T05:04:23.045Z,51.91
2022-08-05T05:05:26.184Z,51.79
2022-08-05T05:06:40.090Z,52.06
2022-08-05T05:07:29.711Z,52.13
2022-08-05T05:08:29.955Z,52.17
2022-08-05T05:09:17.301Z,52.07
2022-08-05T05:10:03.999Z,52.13
2022-08-05T05:10:56.227Z,52.13
2022-08-05T05:11:53.068Z,52.40
2022-08-05T05:12:39.480Z,52.62
2022-08-05T05:13:43.025Z,52.64
2022-08-05T05:14:32.074Z,52.50
2022-08-05T05:15:17.548Z,52.67
2022-08-05T05:16:21.702Z,52.52
2022-08-05T05:17:18.712Z,52.47
2022-08-05T05:18:12.182Z,52.83
2022-08-05T05:19:17.634Z,52.87
2022-08-05T05:20:01.060Z,53.02
2022-08-05T05:20:47.103Z,52.80
2022-08-05T05:21:33.101Z,52.78
2022-08-05T05:22:23.712Z,52.72
2022-08-05T05:23:20.206Z,52.99
2022-08-05T05:24:50.824Z,52.81
2022-08-05T05:25:32.972Z,52.82
2022-08-05T05:27:18.879Z,53.07
2022-08-05T05:29:14.847Z,53.03
2022-08-05T05:31:00.917Z,53.41
2022-08-05T05:32:22.703Z,53.31
2022-08-05T05:33:16.640Z,53.49
2022-08-05T05:35:03.390Z,53.20
2022-08-05T05:36:07.233Z,53.22
2022-08-05T05:37:08.872Z,53.15
2022-08-05T05:38:13.082Z,53.64
2022-08-05T05:39:05.070Z,53.53
2022-08-05T05:39:50.838Z,53.50
2022-08-05T05:40:35.094Z,53.24
2022-08-05T05:41:19.474Z,53.52
2022-08-05T05:42:14.245Z,53.52
2022-08-05T05:43:08.503Z,53.29
2022-08-05T05:43:57.984Z,53.53
2022-08-05T05:45:48.411Z,53.37
2022-08-05T05:46:35.165Z,53.59
2022-08-05T05:48:05.327Z,53.39
2022-08-05T05:48:38.765Z,53.44
2022-08-05T05:49:22.904Z,53.60
2022-08-05T05:50:09.363Z,53.73
2022-08-05T05:51:15.160Z,53.63
2022-08-05T05:52:07.373Z,53.52
2022-08-05T05:52:57.738Z,53.47
2022-08-05T05:53:57.902Z,53.81
2022-08-05T05:54:50.212Z,53.58
2022-08-05T05:55:52.219Z,53.43
2022-08-05T05:56:39.398Z,53.46
2022-08-05T05:57:42.777Z,53.49
2022-08-05T05:58:32.266Z,53.69
2022-08-05T05:59:21.916Z,53.46
2022-08-05T06:00:16.434Z,53.47
2022-08-05T06:01:12.654Z,53.56
2022-08-05T06:01:59.335Z,53.75
2022-08-05T06:02:51.427Z,53.47
2022-08-05T06:04:01.038Z,53.68
2022-08-05T06:04:51.945Z,53.76
2022-08-05T06:05:46.122Z,53.35
2022-08-05T06:06:38.534Z,53.66
2022-08-05T06:07:42.041Z,53.47
2022-08-05T06:08:33.090Z,53.41
2022-08-05T06:09:25.820Z,53.45
2022-08-05T06:10:21.005Z,53.58
2022-08-05T06:11:07.605Z,53.39
2022-08-05T06:12:01.401Z,53.58
2022-08-05T06:12:53.058Z,53.43
2022-08-05T06:13:50.427Z,53.61
2022-08-05T06:14:44.401Z,53.95
2022-08-05T06:16:29.543Z,53.63
2022-08-05T06:16:36.593Z,53.58
2022-08-05T06:17:22.001Z,53.96
2022-08-05T06:18:08.085Z,53.94
2022-08-05T06:18:53.788Z,53.73
2022-08-05T06:19:56.631Z,53.72
2022-08-05T06:20:41.871Z,53.79
2022-08-05T06:21:35.730Z,53.64
2022-08-05T06:22:18.743Z,53.81
2022-08-05T06:23:04.383Z,54.04
2022-08-05T06:23:57.427Z,53.72
2022-08-05T06:24:48.213Z,53.79
2022-08-05T06:26:12.890Z,53.76
2022-08-05T06:26:39.094Z,53.80
2022-08-05T06:28:12.820Z,53.76
2022-08-05T06:28:28.806Z,53.76
2022-08-05T06:29:43.048Z,53.88
2022-08-05T06:30:21.383Z,53.73
2022-08-05T06:31:10.956Z,53.82
2022-08-05T06:32:02.692Z,53.85
2022-08-05T06:32:46.786Z,53.81
2022-08-05T06:34:08.062Z,53.81
2022-08-05T06:34:40.036Z,53.82
2022-08-05T06:36:07.341Z,53.98
2022-08-05T06:36:57.019Z,53.89
2022-08-05T06:37:57.601Z,54.03
2022-08-05T06:38:47.742Z,54.10
2022-08-05T06:39:40.335Z,53.71
2022-08-05T06:40:32.275Z,54.03
2022-08-05T06:41:18.664Z,53.76
2022-08-05T06:42:14.820Z,54.02
2022-08-05T06:43:57.273Z,54.11
2022-08-05T06:44:16.291Z,54.03
2022-08-05T06:45:20.654Z,53.79
2022-08-05T06:46:07.110Z,53.77
2022-08-05T06:46:52.610Z,53.80
2022-08-05T06:48:47.162Z,53.80
2022-08-05T06:49:01.372Z,54.19
2022-08-05T06:50:01.057Z,54.10
2022-08-05T06:50:56.143Z,54.19
2022-08-05T06:52:04.769Z,53.99
2022-08-05T06:53:19.616Z,54.08
2022-08-05T06:54:02.372Z,54.14
2022-08-05T06:54:53.471Z,53.91
2022-08-05T06:55:37.850Z,53.95
2022-08-05T06:56:27.122Z,53.95
2022-08-05T06:57:58.163Z,53.97
2022-08-05T06:58:30.203Z,54.21
2022-08-05T06:59:20.266Z,53.87
2022-08-05T07:00:12.751Z,54.05
2022-08-05T07:01:05.041Z,54.15
2022-08-05T07:01:53.187Z,53.87
2022-08-05T07:02:39.080Z,54.15
2022-08-05T07:03:32.518Z,53.93
2022-08-05T07:04:14.260Z,54.18
2022-08-05T07:05:14.493Z,53.81
2022-08-05T07:06:10.372Z,54.14
2022-08-05T07:07:00.221Z,54.09
2022-08-05T07:07:53.438Z,53.93
2022-08-05T07:08:55.056Z,53.94
2022-08-05T07:09:40.661Z,54.17
2022-08-05T07:10:23.578Z,53.85
2022-08-05T07:11:15.770Z,53.92
2022-08-05T07:12:07.825Z,53.87
2022-08-05T07:12:52.711Z,53.97
2022-08-05T07:13:57.748Z,53.94
2022-08-05T07:14:41.284Z,53.97
2022-08-05T07:15:34.755Z,54.32
2022-08-05T07:17:58.838Z,54.03
2022-08-05T07:18:00.690Z,53.93
2022-08-05T07:18:31.505Z,54.31
2022-08-05T07:20:33.815Z,54.20
2022-08-05T07:21:26.143Z,54.08
2022-08-05T07:22:15.828Z,54.28
2022-08-05T07:22:56.903Z,54.07
2022-08-05T07:23:40.610Z,54.10
2022-08-05T07:24:31.424Z,54.36
2022-08-05T07:25:54.085Z,54.27
2022-08-05T07:26:22.671Z,54.09
2022-08-05T07:27:08.928Z,54.33
2022-08-05T07:27:57.687Z,54.14
2022-08-05T07:30:27.640Z,54.34
2022-08-05T07:31:55.447Z,54.23
2022-08-05T07:32:56.209Z,54.28
2022-08-05T07:33:52.949Z,54.42
2022-08-05T07:34:43.659Z,54.25
2022-08-05T07:36:01.695Z,54.27
2022-08-05T07:36:30.731Z,54.47
2022-08-05T07:37:24.097Z,54.27
2022-08-05T07:38:32.371Z,54.23
2022-08-05T07:40:04.556Z,54.44
2022-08-05T07:40:32.917Z,54.42
2022-08-05T07:42:13.898Z,54.43
2022-08-05T07:42:31.800Z,54.53
2022-08-05T07:43:25.627Z,54.27
2022-08-05T07:44:22.371Z,54.33
2022-08-05T07:45:13.440Z,54.30
2022-08-05T07:46:24.285Z,54.32
2022-08-05T07:47:07.857Z,54.61
2022-08-05T07:47:59.948Z,54.63
2022-08-05T07:49:04.076Z,54.77
2022-08-05T07:49:54.205Z,54.41
2022-08-05T07:50:40.920Z,54.46
2022-08-05T07:51:41.079Z,54.49
2022-08-05T07:53:05.975Z,54.44
2022-08-05T07:53:57.673Z,54.78
2022-08-05T07:54:50.334Z,54.48
2022-08-05T07:56:04.928Z,54.49
2022-08-05T07:57:01.695Z,54.62
2022-08-05T07:57:58.908Z,54.80
2022-08-05T07:58:54.874Z,54.89
2022-08-05T07:59:50.031Z,54.73
2022-08-05T08:00:38.735Z,54.43
2022-08-05T08:01:26.239Z,54.75
2022-08-05T08:02:16.446Z,54.50
2022-08-05T08:03:15.407Z,54.44
2022-08-05T08:04:03.481Z,54.72
2022-08-05T08:04:52.540Z,54.58
2022-08-05T08:05:40.186Z,54.67
2022-08-05T08:06:32.844Z,54.58
2022-08-05T08:07:22.482Z,54.29
2022-08-05T08:08:12.478Z,54.22
2022-08-05T08:08:58.654Z,54.52
2022-08-05T08:09:46.194Z,54.40
2022-08-05T08:10:36.965Z,54.47
2022-08-05T08:11:27.496Z,54.27
2022-08-05T08:12:27.419Z,54.11
2022-08-05T08:13:15.303Z,54.33
2022-08-05T08:14:04.799Z,54.07
2022-08-05T08:14:52.054Z,54.08
2022-08-05T08:16:35.755Z,54.29
2022-08-05T08:16:50.070Z,54.12
2022-08-05T08:17:49.884Z,54.18
2022-08-05T08:18:36.194Z,54.31
2022-08-05T08:20:22.955Z,54.34
2022-08-05T08:20:45.358Z,54.26
2022-08-05T08:21:36.136Z,54.10
2022-08-05T08:22:27.057Z,54.19
2022-08-05T08:24:00.156Z,53.93
2022-08-05T08:24:14.031Z,54.07
2022-08-05T08:25:03.960Z,53.82
2022-08-05T08:26:00.435Z,54.15
2022-08-05T08:26:50.926Z,53.93
2022-08-05T08:27:45.004Z,53.93
2022-08-05T08:28:36.067Z,54.13
2022-08-05T08:30:04.705Z,53.72
2022-08-05T08:30:37.687Z,53.88
2022-08-05T08:31:29.548Z,53.92
2022-08-05T08:32:13.838Z,53.88
2022-08-05T08:33:04.605Z,53.57
2022-08-05T08:33:59.539Z,53.50
2022-08-05T08:34:48.886Z,53.69
2022-08-05T08:35:41.324Z,53.69
2022-08-05T08:36:49.085Z,53.65
2022-08-05T08:37:44.961Z,53.53
2022-08-05T08:38:37.548Z,53.81
2022-08-05T08:39:29.941Z,53.68
2022-08-05T08:40:24.451Z,53.76
2022-08-05T08:41:08.833Z,53.45
2022-08-05T08:42:00.124Z,53.49
2022-08-05T08:42:52.730Z,53.52
2022-08-05T08:45:16.345Z,53.62
2022-08-05T08:45:19.419Z,53.65
2022-08-05T08:45:48.647Z,53.39
2022-08-05T08:46:37.870Z,53.58
2022-08-05T08:48:06.055Z,53.54
2022-08-05T08:48:59.383Z,53.41
2022-08-05T08:50:12.823Z,53.39
2022-08-05T08:51:03.631Z,53.69
2022-08-05T08:52:02.929Z,53.64
2022-08-05T08:52:52.898Z,53.58
2022-08-05T08:53:44.461Z,53.27
2022-08-05T08:54:27.762Z,53.44
2022-08-05T08:55:13.226Z,53.21
2022-08-05T08:56:04.543Z,53.30
2022-08-05T08:56:53.178Z,53.29
2022-08-05T08:57:48.325Z,53.37
2022-08-05T08:58:47.708Z,53.13
2022-08-05T08:59:34.573Z,53.01
2022-08-05T09:00:24.512Z,53.24
2022-08-05T09:01:21.074Z,53.30
2022-08-05T09:02:11.841Z,53.17
2022-08-05T09:03:01.446Z,53.16
2022-08-05T09:03:46.772Z,52.98
2022-08-05T09:04:36.268Z,53.20
2022-08-05T09:05:38.419Z,53.16
2022-08-05T09:06:41.755Z,53.22
2022-08-05T09:07:40.064Z,53.20
2022-08-05T09:08:34.250Z,52.88
2022-08-05T09:09:25.267Z,53.01
2022-08-05T09:10:18.226Z,52.85
2022-08-05T09:11:08.261Z,52.83
2022-08-05T09:12:15.294Z,53.02
2022-08-05T09:13:05.155Z,52.87
2022-08-05T09:14:54.359Z,52.91
2022-08-05T09:15:05.698Z,52.69
2022-08-05T09:15:54.448Z,52.61
2022-08-05T09:16:43.168Z,52.62
2022-08-05T09:17:40.718Z,52.69
2022-08-05T09:18:28.908Z,52.73
2022-08-05T09:19:36.586Z,52.54
2022-08-05T09:20:37.300Z,52.59
2022-08-05T09:22:18.455Z,52.61
2022-08-05T09:22:31.513Z,52.99
2022-08-05T09:24:16.962Z,52.65
2022-08-05T09:26:20.696Z,52.75
2022-08-05T09:27:02.299Z,52.78
2022-08-05T09:28:05.339Z,52.74
2022-08-05T09:28:52.727Z,52.87
2022-08-05T09:29:44.796Z,52.81
2022-08-05T09:30:35.454Z,52.91
2022-08-05T09:32:38.713Z,52.77
2022-08-05T09:32:41.581Z,52.63
2022-08-05T09:33:35.123Z,52.49
2022-08-05T09:34:25.998Z,52.25
2022-08-05T09:36:11.825Z,52.33
2022-08-05T09:37:00.175Z,52.37
2022-08-05T09:38:13.002Z,52.28
2022-08-05T09:39:16.383Z,52.23
2022-08-05T09:40:00.971Z,52.29
2022-08-05T09:41:03.724Z,52.29
2022-08-05T09:41:59.071Z,52.30
2022-08-05T09:42:49.024Z,52.37
2022-08-05T09:43:41.073Z,52.44
2022-08-05T09:44:24.953Z,52.51
2022-08-05T09:46:05.142Z,52.54
2022-08-05T09:46:17.345Z,52.50
2022-08-05T09:47:10.453Z,52.37
2022-08-05T09:47:55.969Z,52.45
2022-08-05T09:48:55.300Z,52.35
2022-08-05T09:50:00.487Z,52.32
2022-08-05T09:50:45.251Z,52.16
2022-08-05T09:51:39.914Z,52.18
2022-08-05T09:52:26.972Z,52.12
2022-08-05T09:53:12.078Z,51.96
2022-08-05T09:54:12.356Z,52.13
2022-08-05T09:54:59.677Z,51.90
2022-08-05T09:55:57.214Z,51.87
2022-08-05T09:57:39.624Z,51.89
2022-08-05T09:58:29.786Z,51.79
2022-08-05T09:59:17.227Z,52.02
2022-08-05T09:59:59.558Z,51.66
2022-08-05T10:00:44.405Z,51.64
2022-08-05T10:01:31.709Z,51.87
2022-08-05T10:02:13.008Z,51.67
2022-08-05T10:02:59.825Z,51.38
2022-08-05T10:03:58.772Z,51.64
2022-08-05T10:04:49.813Z,51.58
2022-08-05T10:06:54.864Z,51.92
2022-08-05T10:08:34.632Z,51.67
2022-08-05T10:08:55.307Z,52.00
2022-08-05T10:09:44.979Z,51.76
2022-08-05T10:10:32.436Z,51.80
2022-08-05T10:11:18.877Z,51.70
2022-08-05T10:12:04.783Z,51.70
2022-08-05T10:13:00.947Z,51.92
2022-08-05T10:13:49.120Z,52.07
2022-08-05T10:14:41.979Z,51.96
2022-08-05T10:15:34.367Z,51.77
2022-08-05T10:16:23.076Z,51.73
2022-08-05T10:17:08.488Z,51.96
2022-08-05T10:18:10.822Z,51.93
2022-08-05T10:18:57.291Z,51.74
2022-08-05T10:20:02.850Z,51.70
2022-08-05T10:20:42.134Z,51.55
2022-08-05T10:23:22.136Z,51.33
2022-08-05T10:24:12.809Z,51.36
2022-08-05T10:24:56.697Z,51.13
2022-08-05T10:25:42.374Z,51.26
2022-08-05T10:26:32.713Z,51.39
2022-08-05T10:27:19.242Z,51.23
2022-08-05T10:28:13.057Z,51.25
2022-08-05T10:29:05.435Z,50.96
2022-08-05T10:30:41.247Z,51.13
2022-08-05T10:32:48.002Z,51.19
2022-08-05T10:32:52.605Z,51.03
2022-08-05T10:33:05.138Z,51.03
2022-08-05T10:33:54.103Z,50.80
2022-08-05T10:34:37.849Z,50.93
2022-08-05T10:35:24.047Z,50.64
2022-08-05T10:36:23.581Z,50.87
2022-08-05T10:37:09.277Z,50.63
2022-08-05T10:37:56.636Z,50.69
2022-08-05T10:38:48.807Z,50.54
2022-08-05T10:40:03.911Z,50.38
2022-08-05T10:40:43.517Z,50.43
2022-08-05T10:41:46.721Z,50.68
2022-08-05T10:42:37.235Z,50.46
2022-08-05T10:44:40.623Z,50.64
2022-08-05T10:45:39.811Z,50.37
2022-08-05T10:46:29.938Z,50.57
2022-08-05T10:47:25.945Z,50.63
2022-08-05T10:48:30.230Z,50.41
2022-08-05T10:49:17.822Z,50.57
2022-08-05T10:50:32.545Z,50.70
2022-08-05T10:51:22.258Z,50.60
2022-08-05T10:52:19.195Z,50.44
2022-08-05T10:53:04.086Z,50.73
2022-08-05T10:54:05.787Z,50.87
2022-08-05T10:55:06.566Z,50.65
2022-08-05T10:56:04.942Z,50.70
2022-08-05T10:57:00.368Z,50.86
2022-08-05T10:57:54.898Z,50.85
2022-08-05T10:58:48.602Z,50.84
2022-08-05T11:00:03.611Z,50.86
2022-08-05T11:00:32.565Z,50.98
2022-08-05T11:01:28.254Z,50.88
2022-08-05T11:02:37.609Z,50.84
2022-08-05T11:04:30.876Z,50.91
2022-08-05T11:05:31.540Z,51.04
2022-08-05T11:06:17.547Z,50.68
2022-08-05T11:07:01.463Z,50.64
2022-08-05T11:08:02.564Z,50.75
2022-08-05T11:08:51.006Z,50.80
2022-08-05T11:09:45.532Z,50.99
2022-08-05T11:10:37.554Z,51.04
2022-08-05T11:11:33.204Z,50.78
2022-08-05T11:12:31.282Z,50.94
2022-08-05T11:13:15.070Z,50.91
2022-08-05T11:13:58.531Z,50.94
2022-08-05T11:15:19.489Z,51.13
2022-08-05T11:16:05.121Z,50.89
2022-08-05T11:17:14.060Z,51.23
2022-08-05T11:18:06.021Z,51.07
2022-08-05T11:20:10.046Z,51.36
2022-08-05T11:20:18.235Z,51.29
2022-08-05T11:21:02.356Z,51.20
2022-08-05T11:22:43.213Z,51.35
2022-08-05T11:24:02.983Z,51.54
2022-08-05T11:24:38.786Z,51.34
2022-08-05T11:26:05.243Z,51.18
2022-08-05T11:26:38.060Z,51.37
2022-08-05T11:27:22.615Z,51.28
2022-08-05T11:29:06.744Z,51.35
2022-08-05T11:31:56.713Z,51.34
2022-08-05T11:32:47.849Z,51.45
2022-08-05T11:33:47.746Z,51.17
2022-08-05T11:34:35.992Z,51.33
2022-08-05T11:35:29.897Z,51.26
2022-08-05T11:38:29.635Z,51.47
2022-08-05T11:38:30.793Z,51.51
2022-08-05T11:39:19.665Z,51.09
2022-08-05T11:40:10.824Z,51.16
2022-08-05T11:41:13.874Z,51.11
2022-08-05T11:42:04.713Z,51.05
2022-08-05T11:42:55.457Z,50.92
2022-08-05T11:44:05.846Z,50.69
2022-08-05T11:44:53.772Z,50.79
2022-08-05T11:46:27.233Z,51.03